createdAt,value
2023-05-10T00:02:01.797Z,18.10
2023-05-10T00:04:30.366Z,17.50
2023-05-10T00:06:59.011Z,16.23
2023-05-10T00:09:27.616Z,13.27
2023-05-10T00:11:56.086Z,20.90
2023-05-10T00:14:24.611Z,15.68
2023-05-10T00:16:53.294Z,19.42
2023-05-10T00:19:21.894Z,20.17
2023-05-10T00:21:50.466Z,22.95
2023-05-10T00:24:19.028Z,19.63
2023-05-10T00:26:47.521Z,21.98
2023-05-10T00:29:16.005Z,24.67
2023-05-10T00:34:12.747Z,27.88
2023-05-10T00:36:41.714Z,29.70
2023-05-10T00:39:10.182Z,30.95
2023-05-10T00:41:38.754Z,38.42
2023-05-10T00:44:07.229Z,30.92
2023-05-10T00:46:36.131Z,31.77
2023-05-10T00:49:05.456Z,41.53
2023-05-10T00:51:34.195Z,34.38
2023-05-10T00:54:03.905Z,34.65
2023-05-10T00:56:32.606Z,34.63
2023-05-10T00:59:01.273Z,31.13
2023-05-10T01:01:29.957Z,35.30
2023-05-10T01:03:59.166Z,32.60
2023-05-10T01:06:28.704Z,36.75
2023-05-10T01:08:57.508Z,36.88
2023-05-10T01:11:26.246Z,37.10
2023-05-10T01:13:58.289Z,41.92
2023-05-10T01:18:56.635Z,47.35
2023-05-10T01:21:37.731Z,43.80
2023-05-10T01:24:28.088Z,40.58
2023-05-10T01:27:05.640Z,55.00
2023-05-10T01:30:09.253Z,61.70
2023-05-10T01:32:54.444Z,50.40
2023-05-10T01:35:42.904Z,59.88
2023-05-10T01:38:34.068Z,52.10
2023-05-10T01:41:11.599Z,49.25
2023-05-10T01:44:04.686Z,49.83
2023-05-10T01:46:38.505Z,46.38
2023-05-10T01:49:18.437Z,57.58
2023-05-10T01:51:52.616Z,52.13
2023-05-10T01:54:23.336Z,53.63
2023-05-10T01:56:59.701Z,49.38
2023-05-10T01:59:34.134Z,46.75
2023-05-10T02:02:05.406Z,48.25
2023-05-10T02:04:39.086Z,61.33
2023-05-10T02:07:09.449Z,48.13
2023-05-10T02:09:39.113Z,48.40
2023-05-10T02:12:09.378Z,49.75
2023-05-10T02:14:38.240Z,53.97
2023-05-10T02:17:08.648Z,49.33
2023-05-10T02:19:40.209Z,45.53
2023-05-10T02:22:10.004Z,63.90
2023-05-10T02:24:40.773Z,49.13
2023-05-10T02:27:11.554Z,44.67
2023-05-10T02:29:40.344Z,48.60
2023-05-10T02:32:12.906Z,53.47
2023-05-10T02:34:42.108Z,54.33
2023-05-10T02:37:11.092Z,58.28
2023-05-10T02:39:44.626Z,62.72
2023-05-10T02:42:16.849Z,50.45
2023-05-10T02:44:49.190Z,60.15
2023-05-10T02:47:19.262Z,48.00
2023-05-10T02:49:48.934Z,46.58
2023-05-10T02:52:24.251Z,55.72
2023-05-10T02:54:56.761Z,44.30
2023-05-10T02:57:32.735Z,49.78
2023-05-10T03:00:03.448Z,56.13
2023-05-10T03:02:32.065Z,45.90
2023-05-10T03:05:00.749Z,44.33
2023-05-10T03:07:29.352Z,45.05
2023-05-10T03:09:58.161Z,48.97
2023-05-10T03:12:43.621Z,45.65
2023-05-10T03:15:19.373Z,56.72
2023-05-10T03:17:56.456Z,54.55
2023-05-10T03:20:32.396Z,56.45
2023-05-10T03:23:39.451Z,51.33
2023-05-10T03:26:09.614Z,40.55
2023-05-10T03:28:39.042Z,58.45
2023-05-10T03:31:08.423Z,44.42
2023-05-10T03:33:36.959Z,46.58
2023-05-10T03:36:05.702Z,46.72
2023-05-10T03:38:34.046Z,36.65
2023-05-10T03:41:02.532Z,48.58
2023-05-10T03:43:30.929Z,45.97
2023-05-10T03:45:59.333Z,43.65
2023-05-10T03:48:27.809Z,48.30
2023-05-10T03:50:56.399Z,36.70
2023-05-10T03:53:25.518Z,43.00
2023-05-10T03:55:54.091Z,38.97
2023-05-10T03:58:22.845Z,47.95
2023-05-10T04:00:52.413Z,49.00
2023-05-10T04:03:22.068Z,43.95
2023-05-10T04:05:59.734Z,56.83
2023-05-10T04:08:28.445Z,51.40
2023-05-10T04:11:07.477Z,55.55
2023-05-10T04:13:36.346Z,52.70
2023-05-10T04:16:06.304Z,68.93
2023-05-10T04:18:34.834Z,92.32
2023-05-10T04:21:03.657Z,90.35
2023-05-10T04:23:32.223Z,91.18
2023-05-10T04:26:02.089Z,108.65
2023-05-10T04:28:30.706Z,85.72
2023-05-10T04:31:11.368Z,90.90
2023-05-10T04:33:39.860Z,98.00
2023-05-10T04:36:08.557Z,93.43
2023-05-10T04:38:37.213Z,103.55
2023-05-10T04:41:07.572Z,92.75
2023-05-10T04:43:37.139Z,94.78
2023-05-10T04:46:06.596Z,87.35
2023-05-10T04:48:35.293Z,79.78
2023-05-10T04:51:05.000Z,76.68
2023-05-10T04:53:33.663Z,62.15
2023-05-10T04:56:02.239Z,76.47
2023-05-10T04:58:30.701Z,72.20
2023-05-10T05:01:06.045Z,65.65
2023-05-10T05:03:34.873Z,60.15
2023-05-10T05:06:04.025Z,73.50
2023-05-10T05:08:32.689Z,61.08
2023-05-10T05:11:01.260Z,73.63
2023-05-10T05:13:29.826Z,67.22
2023-05-10T05:15:58.338Z,54.42
2023-05-10T05:18:26.738Z,56.83
2023-05-10T05:20:55.196Z,49.63
2023-05-10T05:23:25.819Z,56.38
2023-05-10T05:25:54.746Z,50.85
2023-05-10T05:28:23.181Z,41.55
2023-05-10T05:30:51.579Z,95.10
2023-05-10T05:33:20.053Z,47.15
2023-05-10T05:35:51.609Z,44.25
2023-05-10T05:38:20.122Z,46.97
2023-05-10T05:40:48.514Z,58.25
2023-05-10T05:43:16.956Z,72.65
2023-05-10T05:45:45.519Z,59.88
2023-05-10T05:48:14.044Z,38.33
2023-05-10T05:50:42.500Z,31.92
2023-05-10T05:53:12.105Z,32.78
2023-05-10T05:55:40.482Z,39.67
2023-05-10T05:58:09.005Z,30.55
2023-05-10T06:00:37.631Z,36.67
2023-05-10T06:03:07.362Z,44.30
2023-05-10T06:05:35.821Z,38.03
2023-05-10T06:08:04.479Z,32.83
2023-05-10T06:10:33.028Z,32.88
2023-05-10T06:13:01.684Z,30.65
2023-05-10T06:15:30.158Z,33.90
2023-05-10T06:17:58.699Z,32.75
2023-05-10T06:20:27.668Z,31.50
2023-05-10T06:22:56.212Z,32.35
2023-05-10T06:25:24.881Z,29.15
2023-05-10T06:27:58.095Z,28.83
2023-05-10T06:30:30.359Z,38.45
2023-05-10T06:33:00.337Z,31.15
2023-05-10T06:35:29.872Z,28.75
2023-05-10T06:37:58.330Z,31.88
2023-05-10T06:40:27.028Z,31.00
2023-05-10T06:42:55.553Z,37.80
2023-05-10T06:45:24.046Z,31.83
2023-05-10T06:47:53.854Z,27.25
2023-05-10T06:50:22.335Z,26.38
2023-05-10T06:52:52.388Z,32.60
2023-05-10T06:55:21.719Z,31.48
2023-05-10T06:57:50.131Z,34.45
2023-05-10T07:00:19.906Z,39.67
2023-05-10T07:02:48.911Z,36.47
2023-05-10T07:05:17.662Z,32.92
2023-05-10T07:07:46.378Z,31.40
2023-05-10T07:10:15.012Z,34.17
2023-05-10T07:12:43.788Z,24.27
2023-05-10T07:15:12.410Z,30.63
2023-05-10T07:17:43.148Z,32.13
2023-05-10T07:20:13.180Z,26.63
2023-05-10T07:22:42.056Z,47.95
2023-05-10T07:25:10.860Z,56.80
2023-05-10T07:27:39.461Z,35.25
2023-05-10T07:30:08.918Z,26.92
2023-05-10T07:32:37.477Z,39.60
2023-05-10T07:35:06.560Z,28.52
2023-05-10T07:37:35.026Z,25.60
2023-05-10T07:40:03.849Z,21.38
2023-05-10T07:42:32.261Z,21.70
2023-05-10T07:45:00.707Z,24.45
2023-05-10T07:47:29.139Z,24.98
2023-05-10T07:49:57.672Z,21.67
2023-05-10T07:52:26.198Z,25.20
2023-05-10T07:54:54.634Z,32.60
2023-05-10T07:57:23.442Z,21.38
2023-05-10T07:59:51.865Z,18.88
2023-05-10T08:02:20.414Z,17.92
2023-05-10T08:04:48.756Z,17.92
2023-05-10T08:07:17.625Z,12.13
2023-05-10T08:09:46.101Z,13.27
2023-05-10T08:12:14.576Z,16.63
2023-05-10T08:14:43.664Z,15.25
2023-05-10T08:17:12.219Z,10.80
2023-05-10T08:19:40.992Z,11.68
2023-05-10T08:22:09.620Z,14.13
2023-05-10T08:24:39.450Z,15.55
2023-05-10T08:27:09.019Z,12.02
2023-05-10T08:29:49.529Z,12.27
2023-05-10T08:32:19.007Z,14.97
2023-05-10T08:34:47.433Z,15.15
2023-05-10T08:37:15.863Z,11.38
2023-05-10T08:39:48.875Z,12.07
2023-05-10T08:42:21.485Z,17.20
2023-05-10T08:44:50.441Z,11.25
2023-05-10T08:47:19.632Z,16.58
2023-05-10T08:49:52.293Z,10.48
2023-05-10T08:52:22.786Z,9.00
2023-05-10T08:54:51.404Z,11.52
2023-05-10T08:57:20.233Z,7.00
2023-05-10T08:59:48.818Z,7.47
2023-05-10T09:02:19.155Z,11.00
2023-05-10T09:04:47.880Z,7.35
2023-05-10T09:07:17.644Z,19.67
2023-05-10T09:09:46.874Z,12.07
2023-05-10T09:12:17.270Z,7.35
2023-05-10T09:14:46.757Z,6.88
2023-05-10T09:17:15.416Z,9.35
2023-05-10T09:19:44.027Z,13.68
2023-05-10T09:22:12.638Z,7.53
2023-05-10T09:24:46.125Z,9.50
2023-05-10T09:27:14.622Z,16.80
2023-05-10T09:29:43.907Z,7.60
2023-05-10T09:32:13.854Z,11.00
2023-05-10T09:34:43.433Z,10.73
2023-05-10T09:37:11.911Z,8.05
2023-05-10T09:39:40.408Z,22.40
2023-05-10T09:42:10.524Z,16.77
2023-05-10T09:44:39.363Z,16.20
2023-05-10T09:47:07.938Z,12.80
2023-05-10T09:49:36.565Z,9.65
2023-05-10T09:52:07.494Z,16.67
2023-05-10T09:54:36.842Z,12.10
2023-05-10T09:57:05.982Z,12.65
2023-05-10T09:59:36.198Z,11.55
2023-05-10T10:02:04.918Z,13.93
2023-05-10T10:04:40.488Z,13.20
2023-05-10T10:07:09.480Z,11.52
2023-05-10T10:09:38.011Z,11.82
2023-05-10T10:12:06.779Z,10.10
2023-05-10T10:14:35.406Z,13.73
2023-05-10T10:17:08.142Z,9.02
2023-05-10T10:19:38.015Z,11.93
2023-05-10T10:22:07.237Z,10.27
2023-05-10T10:24:35.932Z,8.27
2023-05-10T10:27:15.941Z,14.45
2023-05-10T10:30:14.651Z,6.35
2023-05-10T10:33:10.113Z,61.95
2023-05-10T10:35:47.439Z,21.08
2023-05-10T10:38:16.512Z,13.13
2023-05-10T10:40:46.034Z,5.88
2023-05-10T10:43:28.420Z,7.88
2023-05-10T10:46:16.977Z,8.43
2023-05-10T10:48:52.517Z,12.40
2023-05-10T10:51:21.159Z,11.35
2023-05-10T10:53:49.933Z,12.98
2023-05-10T10:56:24.676Z,11.98
2023-05-10T10:58:54.539Z,20.45
2023-05-10T11:01:23.236Z,12.55
2023-05-10T11:04:01.219Z,14.18
2023-05-10T11:06:34.431Z,17.48
2023-05-10T11:09:08.198Z,16.10
2023-05-10T11:11:44.751Z,19.15
2023-05-10T11:14:13.341Z,19.38
2023-05-10T11:16:43.843Z,13.82
2023-05-10T11:19:14.360Z,14.75
2023-05-10T11:22:05.934Z,20.45
2023-05-10T11:24:34.806Z,20.83
2023-05-10T11:27:03.613Z,15.63
2023-05-10T11:29:32.103Z,22.92
2023-05-10T11:32:01.227Z,29.77
2023-05-10T11:34:31.744Z,21.38
2023-05-10T11:37:00.832Z,18.17
2023-05-10T11:39:32.787Z,18.13
2023-05-10T11:44:33.717Z,234.88
2023-05-10T11:47:02.994Z,35.72
2023-05-10T11:49:31.600Z,109.07
2023-05-10T11:52:07.812Z,34.70
2023-05-10T11:54:36.394Z,37.28
2023-05-10T11:57:05.239Z,31.08
2023-05-10T11:59:33.771Z,31.33
2023-05-10T12:02:02.555Z,22.80
2023-05-10T12:04:31.922Z,49.15
2023-05-10T12:07:00.526Z,26.52
2023-05-10T12:09:42.444Z,23.42
2023-05-10T12:12:18.476Z,20.40
2023-05-10T12:14:51.676Z,21.45
2023-05-10T12:17:20.276Z,44.78
2023-05-10T12:19:48.890Z,21.17
2023-05-10T12:22:21.950Z,25.05
2023-05-10T12:24:51.620Z,44.40
2023-05-10T12:27:20.165Z,28.10
2023-05-10T12:29:49.195Z,30.00
2023-05-10T12:32:17.754Z,15.68
2023-05-10T12:34:47.702Z,6.90
2023-05-10T12:37:18.519Z,9.50
2023-05-10T12:39:47.240Z,27.23
2023-05-10T12:42:15.766Z,33.65
2023-05-10T12:44:44.556Z,7.75
2023-05-10T12:47:13.000Z,3.88
2023-05-10T12:49:41.628Z,5.65
2023-05-10T12:52:10.271Z,3.92
2023-05-10T12:54:38.709Z,5.57
2023-05-10T12:57:07.295Z,4.15
2023-05-10T12:59:37.425Z,21.30
2023-05-10T13:02:07.552Z,6.97
2023-05-10T13:04:36.110Z,19.45
2023-05-10T13:07:04.614Z,7.82
2023-05-10T13:09:33.365Z,5.88
2023-05-10T13:12:02.394Z,9.85
2023-05-10T13:14:31.062Z,10.43
2023-05-10T13:16:59.589Z,8.68
2023-05-10T13:19:28.253Z,13.88
2023-05-10T13:21:56.662Z,34.63
2023-05-10T13:24:25.082Z,10.75
2023-05-10T13:26:53.667Z,28.95
2023-05-10T13:29:23.506Z,15.63
2023-05-10T13:31:52.402Z,17.52
2023-05-10T13:34:25.129Z,14.00
2023-05-10T13:36:54.839Z,19.50
2023-05-10T13:39:23.744Z,25.95
2023-05-10T13:41:53.869Z,18.98
2023-05-10T13:44:23.086Z,23.52
2023-05-10T13:46:51.611Z,19.13
2023-05-10T13:49:20.472Z,28.92
2023-05-10T13:51:49.261Z,17.60
2023-05-10T13:54:20.466Z,9.95
2023-05-10T13:56:49.480Z,13.10
2023-05-10T13:59:18.226Z,9.77
2023-05-10T14:01:46.988Z,21.80
2023-05-10T14:04:15.671Z,8.88
2023-05-10T14:06:44.248Z,6.82
2023-05-10T14:09:12.833Z,4.75
2023-05-10T14:11:44.127Z,13.00
2023-05-10T14:14:13.666Z,9.13
2023-05-10T14:16:45.716Z,11.43
2023-05-10T14:21:42.645Z,11.02
2023-05-10T14:24:11.223Z,7.40
2023-05-10T14:26:39.765Z,6.55
2023-05-10T14:29:09.935Z,6.25
2023-05-10T14:31:39.936Z,7.88
2023-05-10T14:34:08.411Z,11.00
2023-05-10T14:36:36.891Z,10.65
2023-05-10T14:39:05.996Z,13.70
2023-05-10T14:41:34.473Z,9.50
2023-05-10T14:44:04.333Z,11.07
2023-05-10T14:46:32.862Z,16.55
2023-05-10T14:49:01.575Z,11.20
2023-05-10T14:51:30.056Z,11.25
2023-05-10T14:53:58.831Z,10.93
2023-05-10T14:56:27.566Z,9.70
2023-05-10T14:58:57.162Z,13.52
2023-05-10T15:01:26.469Z,10.27
2023-05-10T15:03:55.994Z,13.63
2023-05-10T15:06:32.746Z,12.63
2023-05-10T15:09:02.522Z,15.50
2023-05-10T15:11:31.167Z,10.57
2023-05-10T15:13:59.762Z,11.23
2023-05-10T15:16:28.295Z,16.23
2023-05-10T15:18:56.753Z,13.57
2023-05-10T15:21:25.189Z,19.90
2023-05-10T15:23:53.646Z,10.77
2023-05-10T15:26:22.973Z,9.85
2023-05-10T15:28:51.507Z,12.43
2023-05-10T15:31:20.125Z,13.98
2023-05-10T15:33:48.646Z,9.40
2023-05-10T15:36:18.760Z,12.77
2023-05-10T15:38:48.147Z,10.43
2023-05-10T15:41:16.720Z,9.45
2023-05-10T15:43:45.508Z,9.60
2023-05-10T15:46:13.998Z,8.10
2023-05-10T15:48:42.857Z,8.82
2023-05-10T15:51:11.462Z,11.60
2023-05-10T15:53:49.504Z,7.55
2023-05-10T15:56:22.340Z,18.20
2023-05-10T15:58:51.290Z,7.32
2023-05-10T16:01:21.283Z,6.55
2023-05-10T16:03:49.958Z,8.88
2023-05-10T16:06:18.458Z,13.55
2023-05-10T16:08:46.837Z,10.02
2023-05-10T16:11:15.406Z,18.80
2023-05-10T16:13:43.840Z,10.60
2023-05-10T16:16:12.328Z,9.68
2023-05-10T16:18:41.187Z,7.53
2023-05-10T16:21:09.755Z,11.70
2023-05-10T16:23:39.692Z,13.75
2023-05-10T16:26:08.821Z,8.20
2023-05-10T16:28:37.644Z,7.97
2023-05-10T16:31:06.135Z,11.27
2023-05-10T16:33:34.631Z,9.80
2023-05-10T16:36:03.180Z,7.32
2023-05-10T16:38:31.937Z,5.80
2023-05-10T16:41:02.338Z,14.25
2023-05-10T16:43:32.798Z,9.30
2023-05-10T16:46:01.363Z,15.25
2023-05-10T16:48:29.931Z,9.07
2023-05-10T16:50:58.444Z,17.08
2023-05-10T16:53:27.051Z,12.38
2023-05-10T16:55:55.483Z,7.93
2023-05-10T16:58:24.041Z,8.82
2023-05-10T17:00:52.971Z,13.88
2023-05-10T17:03:21.531Z,6.10
2023-05-10T17:05:51.182Z,8.75
2023-05-10T17:08:22.081Z,10.02
2023-05-10T17:10:50.537Z,9.23
2023-05-10T17:13:18.947Z,6.45
2023-05-10T17:15:47.547Z,8.23
2023-05-10T17:18:17.305Z,10.57
2023-05-10T17:20:45.890Z,9.48
2023-05-10T17:23:14.555Z,14.95
2023-05-10T17:25:43.142Z,10.52
2023-05-10T17:28:12.747Z,6.72
2023-05-10T17:30:41.216Z,6.63
2023-05-10T17:33:10.689Z,9.57
2023-05-10T17:35:39.234Z,6.40
2023-05-10T17:38:09.715Z,7.00
2023-05-10T17:40:40.825Z,7.05
2023-05-10T17:43:09.602Z,13.50
2023-05-10T17:45:38.284Z,7.22
2023-05-10T17:48:07.761Z,8.43
2023-05-10T17:50:36.293Z,7.95
2023-05-10T17:53:04.779Z,8.85
2023-05-10T17:55:33.414Z,7.80
2023-05-10T17:58:02.040Z,8.02
2023-05-10T18:00:30.484Z,6.25
2023-05-10T18:02:58.955Z,8.38
2023-05-10T18:05:28.583Z,9.98
2023-05-10T18:07:57.302Z,7.00
2023-05-10T18:10:25.710Z,12.05
2023-05-10T18:12:54.169Z,10.73
2023-05-10T18:15:22.975Z,8.68
2023-05-10T18:17:51.432Z,10.23
2023-05-10T18:20:19.829Z,10.13
2023-05-10T18:22:48.591Z,10.10
2023-05-10T18:25:17.574Z,11.73
2023-05-10T18:27:46.158Z,10.18
2023-05-10T18:30:14.669Z,10.13
2023-05-10T18:32:43.472Z,10.57
2023-05-10T18:35:12.291Z,12.13
2023-05-10T18:37:40.863Z,12.10
2023-05-10T18:40:11.066Z,11.75
2023-05-10T18:42:39.767Z,10.20
2023-05-10T18:45:08.902Z,12.98
2023-05-10T18:47:37.590Z,13.10
2023-05-10T18:50:07.843Z,12.68
2023-05-10T18:52:39.399Z,10.57
2023-05-10T18:55:08.322Z,12.88
2023-05-10T18:57:41.180Z,11.07
2023-05-10T19:00:12.312Z,11.77
2023-05-10T19:02:41.570Z,14.13
2023-05-10T19:05:10.244Z,14.65
2023-05-10T19:07:39.414Z,13.75
2023-05-10T19:10:08.393Z,15.75
2023-05-10T19:12:37.447Z,15.57
2023-05-10T19:15:06.511Z,15.07
2023-05-10T19:17:36.859Z,16.20
2023-05-10T19:20:07.072Z,14.93
2023-05-10T19:22:47.258Z,16.48
2023-05-10T19:25:29.289Z,15.68
2023-05-10T19:27:58.498Z,15.82
2023-05-10T19:30:28.041Z,13.75
2023-05-10T19:32:56.562Z,25.52
2023-05-10T19:35:25.377Z,14.60
2023-05-10T19:37:54.259Z,15.00
2023-05-10T19:40:22.806Z,16.10
2023-05-10T19:42:51.215Z,14.02
2023-05-10T19:45:20.138Z,15.10
2023-05-10T19:47:48.672Z,16.33
2023-05-10T19:50:18.908Z,16.00
2023-05-10T19:52:48.057Z,14.98
2023-05-10T19:55:28.250Z,16.60
2023-05-10T19:57:57.897Z,13.45
2023-05-10T20:00:27.359Z,13.13
2023-05-10T20:02:55.939Z,12.60
2023-05-10T20:05:24.438Z,17.75
2023-05-10T20:07:52.995Z,14.75
2023-05-10T20:10:22.056Z,10.73
2023-05-10T20:12:52.021Z,13.05
2023-05-10T20:15:22.899Z,14.18
2023-05-10T20:17:53.173Z,16.48
2023-05-10T20:20:21.955Z,12.35
2023-05-10T20:22:51.031Z,20.83
2023-05-10T20:25:20.081Z,13.48
2023-05-10T20:27:50.825Z,16.75
2023-05-10T20:30:19.646Z,18.42
2023-05-10T20:32:48.430Z,12.93
2023-05-10T20:35:17.034Z,15.65
2023-05-10T20:37:45.539Z,14.90
2023-05-10T20:40:14.012Z,14.48
2023-05-10T20:42:42.549Z,11.73
2023-05-10T20:45:11.351Z,12.93
2023-05-10T20:47:39.755Z,14.93
2023-05-10T20:50:08.550Z,15.02
2023-05-10T20:52:37.118Z,12.75
2023-05-10T20:55:06.040Z,12.60
2023-05-10T20:57:34.457Z,13.88
2023-05-10T21:00:03.414Z,13.43
2023-05-10T21:02:31.909Z,11.88
2023-05-10T21:05:00.531Z,9.73
2023-05-10T21:07:29.175Z,28.77
2023-05-10T21:09:57.658Z,16.73
2023-05-10T21:12:26.224Z,12.63
2023-05-10T21:14:54.615Z,11.05
2023-05-10T21:17:23.162Z,18.17
2023-05-10T21:19:51.686Z,8.60
2023-05-10T21:22:20.242Z,13.73
2023-05-10T21:24:48.591Z,13.23
2023-05-10T21:27:17.010Z,11.68
2023-05-10T21:29:45.769Z,13.48
2023-05-10T21:32:15.031Z,14.60
2023-05-10T21:34:43.527Z,15.07
2023-05-10T21:37:11.929Z,19.52
2023-05-10T21:39:40.356Z,22.48
2023-05-10T21:42:08.798Z,18.50
2023-05-10T21:44:38.598Z,19.88
2023-05-10T21:47:06.992Z,22.67
2023-05-10T21:49:35.725Z,20.23
2023-05-10T21:52:04.227Z,18.88
2023-05-10T21:54:32.804Z,21.45
2023-05-10T21:57:01.281Z,34.13
2023-05-10T21:59:29.741Z,17.63
2023-05-10T22:01:59.321Z,18.17
2023-05-10T22:04:27.716Z,30.38
2023-05-10T22:06:56.149Z,17.50
2023-05-10T22:09:25.424Z,21.25
2023-05-10T22:11:53.801Z,20.50
2023-05-10T22:14:22.901Z,19.13
2023-05-10T22:16:51.345Z,22.58
2023-05-10T22:19:19.796Z,18.17
2023-05-10T22:21:48.268Z,15.55
2023-05-10T22:24:16.724Z,16.23
2023-05-10T22:26:45.335Z,16.48
2023-05-10T22:29:13.724Z,16.38
2023-05-10T22:31:42.137Z,20.00
2023-05-10T22:34:10.757Z,18.42
2023-05-10T22:36:39.232Z,16.85
2023-05-10T22:39:07.610Z,18.52
2023-05-10T22:41:36.049Z,21.42
2023-05-10T22:44:04.994Z,20.33
2023-05-10T22:46:33.429Z,19.25
2023-05-10T22:49:01.873Z,17.00
2023-05-10T22:51:30.273Z,20.13
2023-05-10T22:53:58.768Z,19.48
2023-05-10T22:56:27.318Z,19.85
2023-05-10T22:58:56.966Z,19.23
2023-05-10T23:01:25.650Z,18.48
2023-05-10T23:03:54.135Z,24.55
2023-05-10T23:06:22.551Z,17.63
2023-05-10T23:08:50.956Z,16.95
2023-05-10T23:11:19.436Z,20.80
2023-05-10T23:13:48.279Z,21.80
2023-05-10T23:16:17.068Z,17.42
2023-05-10T23:18:45.803Z,20.95
2023-05-10T23:21:14.287Z,29.60
2023-05-10T23:23:42.696Z,18.65
2023-05-10T23:26:11.351Z,22.10
2023-05-10T23:28:39.750Z,21.52
2023-05-10T23:31:08.166Z,20.95
2023-05-10T23:33:36.606Z,21.92
2023-05-10T23:36:05.250Z,19.98
2023-05-10T23:38:33.670Z,23.88
2023-05-10T23:41:02.151Z,29.17
2023-05-10T23:43:30.594Z,19.85
2023-05-10T23:45:59.467Z,24.65
2023-05-10T23:48:28.011Z,32.30
2023-05-10T23:50:56.438Z,22.08
2023-05-10T23:53:24.823Z,19.63
2023-05-10T23:55:53.332Z,21.23
2023-05-10T23:58:22.000Z,22.33
